Yeovilton, United Kingdom

4:46 AM BST on October 25, 2014 (GMT +0100)
IENGLAND159 | Change Station
CLOSE
Current Station
Personal Weather Station
Location: Chilthorne Domer, Somerset
Elevation: 165 ft
Nearby Weather Stations

Elev 165 ft 50.97 °N, 2.67 °W | Updated 7 seconds ago

Mostly Cloudy
Mostly Cloudy
50.6 °F
Feels Like 50.6 °F
N
8.1
Wind Variable Wind from SW
Gusts 8.1 mph

Today
High -- | Low -- °F
--% Chance of Precip.
Yesterday
High -- | Low -- °F
Precip. -- in
7:50 AM 5:58 PM
New Moon, 2% visible
Pressure 30.01 in
Visibility 6.2 miles
Clouds Few 1300 ft
Mostly Cloudy 2200 ft
Dew Point 47 °F
Humidity 88%
Rainfall 0.00 in
Snow Depth Not available.
UV 0.0 out of 12
Pollen Not available.
Air Quality Not available.
Flu Activity Not available.
METAR EGGD 250320Z 21005KT 9999 FEW013 BKN022 10/08 Q1016

More Conditions Fewer Conditions

Pressure 30.01 in
Visibility 6.2 miles
Clouds Few 1300 ft
Mostly Cloudy 2200 ft
Dew Point 47 °F
Humidity 88%
Rainfall 0.00 in
Snow Depth Not available.
UV 0.0 out of 12
Pollen Not available.
Air Quality Not available.
Flu Activity Not available.
METAR EGGD 250320Z 21005KT 9999 FEW013 BKN022 10/08 Q1016

More Conditions Fewer Conditions

10-Day Weather Forecast

Almanac

Astronomy

Oct. 25, 2014 Rise Set
Actual Time 7:50 AM BST 5:58 PM BST
Civil Twilight 7:16 AM BST 6:32 PM BST
Nautical Twilight 6:37 AM BST 7:10 PM BST
Astronomical Twilight 5:59 AM BST 7:48 PM BST
Moon 9:22 AM BST 7:01 PM BST
Length of Visible Light 11h 15m
Length of Day
10h 07m
Tomorrow will be 3m 39s shorter.
New Moon, 2% of the Moon is Illuminated
Oct 24
New Moon
Oct 30
First Quarter
Nov 6
Full
Nov 14
Last Quarter
Nov 22
New

Yesterday's Extremes

Country Highs Country Lows

Community

WunderPhotos

Upload Photos

1,764,772 photos uploaded!

Nearby

Snow Depth

Not available.

Earthquake Activity

City Distance Mag. Time & Date
No recent earthquake activity has been reported nearby.
Minimum magnitude displayed is 2.5.

Coastal Water Temperatures

Place Temperature
No Stations Reporting

Nearby Weather Stations